createdAt,value
2017-11-23T00:01:07.258Z,75.77
2017-11-23T00:03:33.059Z,75.79
2017-11-23T00:05:59.233Z,76.23
2017-11-23T00:08:25.219Z,76.51
2017-11-23T00:10:51.331Z,76.26
2017-11-23T00:13:17.129Z,76.29
2017-11-23T00:15:43.292Z,76.02
2017-11-23T00:18:09.137Z,76.08
2017-11-23T00:20:34.934Z,75.80
2017-11-23T00:23:00.762Z,75.66
2017-11-23T00:25:26.544Z,75.10
2017-11-23T00:27:52.343Z,75.61
2017-11-23T00:30:19.041Z,74.76
2017-11-23T00:32:44.828Z,74.32
2017-11-23T00:35:10.614Z,74.69
2017-11-23T00:37:36.701Z,74.41
2017-11-23T00:40:02.520Z,74.51
2017-11-23T00:42:28.342Z,74.42
2017-11-23T00:44:54.180Z,73.71
2017-11-23T00:47:19.982Z,73.93
2017-11-23T00:49:45.772Z,74.33
2017-11-23T00:52:11.556Z,74.20
2017-11-23T00:54:37.338Z,73.70
2017-11-23T00:57:03.132Z,73.68
2017-11-23T00:59:28.944Z,73.63
2017-11-23T01:01:54.732Z,73.37
2017-11-23T01:04:20.557Z,73.26
2017-11-23T01:06:46.334Z,73.13
2017-11-23T01:09:12.119Z,72.97
2017-11-23T01:11:37.935Z,72.60
2017-11-23T01:14:04.064Z,72.08
2017-11-23T01:16:29.852Z,72.28
2017-11-23T01:18:55.620Z,71.91
2017-11-23T01:21:21.408Z,71.27
2017-11-23T01:23:47.201Z,71.67
2017-11-23T01:26:12.988Z,71.37
2017-11-23T01:28:39.083Z,71.01
2017-11-23T01:31:04.867Z,70.72
2017-11-23T01:33:30.651Z,71.11
2017-11-23T01:35:56.456Z,70.44
2017-11-23T01:38:22.245Z,70.26
2017-11-23T01:40:48.029Z,69.77
2017-11-23T01:43:13.880Z,69.59
2017-11-23T01:45:39.704Z,69.54
2017-11-23T01:48:05.488Z,69.73
2017-11-23T01:50:31.541Z,69.39
2017-11-23T01:52:57.325Z,69.58
2017-11-23T01:55:23.142Z,69.58
2017-11-23T01:57:49.006Z,70.29
2017-11-23T02:00:15.369Z,69.98
2017-11-23T02:02:41.166Z,69.98
2017-11-23T02:05:06.981Z,70.50
2017-11-23T02:07:32.785Z,69.83
2017-11-23T02:09:58.622Z,69.84
2017-11-23T02:12:24.490Z,69.51
2017-11-23T02:14:50.304Z,69.65
2017-11-23T02:17:16.125Z,69.19
2017-11-23T02:19:41.954Z,69.09
2017-11-23T02:22:07.791Z,68.52
2017-11-23T02:24:33.632Z,68.04
2017-11-23T02:26:59.488Z,68.78
2017-11-23T02:29:25.343Z,68.34
2017-11-23T02:31:51.172Z,68.55
2017-11-23T02:34:17.185Z,68.25
2017-11-23T02:36:43.030Z,68.63
2017-11-23T02:39:08.864Z,68.74
2017-11-23T02:41:34.696Z,68.04
2017-11-23T02:44:00.503Z,68.44
2017-11-23T02:46:26.318Z,68.51
2017-11-23T02:48:52.138Z,68.33
2017-11-23T02:51:17.961Z,68.33
2017-11-23T02:53:43.774Z,68.37
2017-11-23T02:56:09.606Z,67.85
2017-11-23T02:58:35.419Z,68.01
2017-11-23T03:01:01.241Z,68.46
2017-11-23T03:03:27.092Z,67.47
2017-11-23T03:05:52.888Z,67.59
2017-11-23T03:08:18.684Z,67.13
2017-11-23T03:10:44.525Z,67.50
2017-11-23T03:13:10.346Z,67.15
2017-11-23T03:15:36.130Z,67.36
2017-11-23T03:18:01.969Z,67.17
2017-11-23T03:20:27.768Z,66.80
2017-11-23T03:22:53.573Z,66.71
2017-11-23T03:25:19.411Z,66.90
2017-11-23T03:27:45.215Z,67.34
2017-11-23T03:30:11.024Z,67.27
2017-11-23T03:32:36.849Z,67.33
2017-11-23T03:35:02.644Z,66.93
2017-11-23T03:37:28.468Z,66.02
2017-11-23T03:39:54.287Z,66.49
2017-11-23T03:42:20.121Z,66.12
2017-11-23T03:44:45.968Z,66.04
2017-11-23T03:47:11.792Z,65.62
2017-11-23T03:49:37.592Z,66.00
2017-11-23T03:52:03.397Z,65.50
2017-11-23T03:54:29.257Z,65.40
2017-11-23T03:56:55.061Z,65.69
2017-11-23T03:59:20.854Z,66.42
2017-11-23T04:01:46.665Z,66.93
2017-11-23T04:04:12.440Z,65.76
2017-11-23T04:06:38.244Z,66.31
2017-11-23T04:09:04.424Z,65.89
2017-11-23T04:11:30.227Z,65.52
2017-11-23T04:13:56.041Z,65.86
2017-11-23T04:16:22.045Z,65.09
2017-11-23T04:18:47.841Z,65.06
2017-11-23T04:21:13.633Z,64.49
2017-11-23T04:23:39.641Z,64.24
2017-11-23T04:26:05.493Z,64.12
2017-11-23T04:28:31.317Z,64.40
2017-11-23T04:30:57.162Z,65.09
2017-11-23T04:33:22.974Z,65.12
2017-11-23T04:35:48.796Z,65.96
2017-11-23T04:38:15.161Z,66.44
2017-11-23T04:40:40.980Z,65.99
2017-11-23T04:43:06.805Z,66.15
2017-11-23T04:45:32.617Z,65.66
2017-11-23T04:47:58.418Z,66.34
2017-11-23T04:50:24.255Z,66.35
2017-11-23T04:52:50.057Z,66.19
2017-11-23T04:55:15.977Z,65.98
2017-11-23T04:57:41.783Z,66.55
2017-11-23T05:00:07.566Z,66.97
2017-11-23T05:02:33.398Z,66.84
2017-11-23T05:04:59.200Z,67.77
2017-11-23T05:07:25.010Z,67.80
2017-11-23T05:09:50.824Z,68.60
2017-11-23T05:12:16.628Z,67.93
2017-11-23T05:14:42.454Z,68.15
2017-11-23T05:17:08.256Z,68.66
2017-11-23T05:19:34.059Z,69.78
2017-11-23T05:22:00.087Z,69.66
2017-11-23T05:24:25.880Z,68.30
2017-11-23T05:26:51.684Z,67.84
2017-11-23T05:29:17.508Z,68.07
2017-11-23T05:31:43.305Z,68.95
2017-11-23T05:34:09.105Z,69.64
2017-11-23T05:36:34.937Z,69.86
2017-11-23T05:39:00.826Z,70.32
2017-11-23T05:41:26.699Z,70.36
2017-11-23T05:43:52.514Z,70.57
2017-11-23T05:46:18.321Z,70.29
2017-11-23T05:48:44.143Z,70.54
2017-11-23T05:51:09.950Z,70.73
2017-11-23T05:53:35.748Z,70.47
2017-11-23T05:56:01.551Z,70.16
2017-11-23T05:58:27.338Z,69.80
2017-11-23T06:00:53.194Z,70.14
2017-11-23T06:03:19.046Z,70.00
2017-11-23T06:05:44.867Z,70.42
2017-11-23T06:08:10.681Z,70.01
2017-11-23T06:10:36.513Z,70.63
2017-11-23T06:13:02.307Z,69.99
2017-11-23T06:15:28.108Z,70.25
2017-11-23T06:17:54.120Z,69.99
2017-11-23T06:20:19.942Z,70.17
2017-11-23T06:22:45.722Z,69.79
2017-11-23T06:25:11.540Z,69.37
2017-11-23T06:27:37.333Z,69.13
2017-11-23T06:30:03.149Z,69.43
2017-11-23T06:32:29.237Z,68.85
2017-11-23T06:34:55.025Z,69.31
2017-11-23T06:37:20.812Z,69.39
2017-11-23T06:39:46.649Z,69.37
2017-11-23T06:42:12.438Z,69.00
2017-11-23T06:44:38.220Z,68.12
2017-11-23T06:47:04.009Z,68.51
2017-11-23T06:49:29.830Z,67.71
2017-11-23T06:54:28.345Z,66.73
2017-11-23T06:56:54.148Z,66.45
2017-11-23T06:59:20.201Z,66.58
2017-11-23T07:01:45.985Z,66.22
2017-11-23T07:04:11.777Z,65.45
2017-11-23T07:06:37.603Z,65.01
2017-11-23T07:09:03.438Z,64.60
2017-11-23T07:11:29.285Z,64.77
2017-11-23T07:13:55.094Z,63.81
2017-11-23T07:16:20.893Z,62.92
2017-11-23T07:18:47.065Z,63.04
2017-11-23T07:21:12.881Z,62.96
2017-11-23T07:23:38.673Z,62.39
2017-11-23T07:26:04.816Z,63.17
2017-11-23T07:28:30.642Z,62.94
2017-11-23T07:30:56.427Z,62.73
2017-11-23T07:33:23.042Z,63.12
2017-11-23T07:35:48.841Z,63.47
2017-11-23T07:38:14.660Z,63.23
2017-11-23T07:40:40.442Z,63.01
2017-11-23T07:43:06.229Z,63.76
2017-11-23T07:45:32.046Z,63.27
2017-11-23T07:47:57.854Z,63.48
2017-11-23T07:50:23.684Z,64.31
2017-11-23T07:52:49.485Z,63.05
2017-11-23T07:55:15.278Z,63.06
2017-11-23T07:57:41.194Z,62.80
2017-11-23T08:00:07.014Z,62.67
2017-11-23T08:02:32.817Z,63.00
2017-11-23T08:04:58.658Z,62.57
2017-11-23T08:07:24.525Z,62.42
2017-11-23T08:09:50.321Z,62.79
2017-11-23T08:12:16.491Z,62.69
2017-11-23T08:14:42.323Z,62.45
2017-11-23T08:17:08.153Z,63.08
2017-11-23T08:19:34.790Z,62.93
2017-11-23T08:22:00.733Z,63.14
2017-11-23T08:24:26.545Z,63.33
2017-11-23T08:26:52.333Z,63.83
2017-11-23T08:29:18.145Z,63.89
2017-11-23T08:31:43.962Z,63.24
2017-11-23T08:34:09.754Z,63.70
2017-11-23T08:36:35.544Z,63.75
2017-11-23T08:39:01.362Z,64.09
2017-11-23T08:41:27.178Z,64.18
2017-11-23T08:43:52.970Z,64.28
2017-11-23T08:46:18.797Z,63.78
2017-11-23T08:48:44.609Z,63.46
2017-11-23T08:51:10.405Z,63.61
2017-11-23T08:53:36.530Z,63.96
2017-11-23T08:56:02.337Z,64.00
2017-11-23T08:58:28.125Z,63.94
2017-11-23T09:00:54.191Z,63.94
2017-11-23T09:03:19.973Z,64.21
2017-11-23T09:05:45.834Z,63.61
2017-11-23T09:08:12.242Z,63.26
2017-11-23T09:10:38.569Z,63.45
2017-11-23T09:13:08.459Z,63.73
2017-11-23T09:15:34.728Z,64.00
2017-11-23T09:18:00.717Z,63.28
2017-11-23T09:20:27.273Z,63.54
2017-11-23T09:22:53.856Z,62.90
2017-11-23T09:25:19.835Z,63.57
2017-11-23T09:27:45.702Z,63.40
2017-11-23T09:30:11.817Z,63.12
2017-11-23T09:32:37.630Z,63.26
2017-11-23T09:35:03.620Z,62.92
2017-11-23T09:37:29.451Z,63.09
2017-11-23T09:39:55.272Z,63.20
2017-11-23T09:42:21.288Z,62.74
2017-11-23T09:44:47.103Z,62.45
2017-11-23T09:47:12.938Z,62.27
2017-11-23T09:49:38.986Z,62.37
2017-11-23T09:52:04.833Z,62.48
2017-11-23T09:54:30.635Z,62.11
2017-11-23T09:56:56.441Z,61.66
2017-11-23T09:59:22.244Z,61.61
2017-11-23T10:01:48.044Z,61.21
2017-11-23T10:04:14.063Z,61.38
2017-11-23T10:06:40.737Z,60.99
2017-11-23T10:09:06.538Z,60.81
2017-11-23T10:11:32.338Z,60.69
2017-11-23T10:13:58.167Z,60.52
2017-11-23T10:16:23.968Z,60.88
2017-11-23T10:18:49.772Z,60.10
2017-11-23T10:21:15.914Z,59.98
2017-11-23T10:23:41.730Z,59.63
2017-11-23T10:26:07.521Z,59.21
2017-11-23T10:28:34.267Z,59.18
2017-11-23T10:31:00.074Z,59.23
2017-11-23T10:33:25.879Z,58.48
2017-11-23T10:35:51.680Z,58.46
2017-11-23T10:38:17.481Z,58.16
2017-11-23T10:40:43.282Z,57.93
2017-11-23T10:43:09.124Z,57.50
2017-11-23T10:45:34.921Z,57.52
2017-11-23T10:48:00.725Z,57.60
2017-11-23T10:50:27.495Z,57.16
2017-11-23T10:52:53.315Z,56.95
2017-11-23T10:55:19.139Z,56.82
2017-11-23T10:57:44.981Z,56.91
2017-11-23T11:00:10.799Z,57.22
2017-11-23T11:02:36.617Z,57.44
2017-11-23T11:05:02.435Z,56.84
2017-11-23T11:07:29.116Z,57.14
2017-11-23T11:09:54.972Z,57.15
2017-11-23T11:12:20.778Z,57.18
2017-11-23T11:14:46.644Z,57.06
2017-11-23T11:17:12.450Z,57.58
2017-11-23T11:19:38.257Z,57.54
2017-11-23T11:22:04.446Z,57.49
2017-11-23T11:24:30.295Z,57.88
2017-11-23T11:26:56.135Z,57.85
2017-11-23T11:29:21.955Z,57.71
2017-11-23T11:31:47.771Z,57.80
2017-11-23T11:34:13.589Z,57.87
2017-11-23T11:36:39.419Z,57.96
2017-11-23T11:39:05.850Z,57.71
2017-11-23T11:41:32.632Z,57.39
2017-11-23T11:43:59.537Z,57.79
2017-11-23T11:46:25.709Z,58.04
2017-11-23T11:48:51.585Z,57.90
2017-11-23T11:51:18.186Z,57.88
2017-11-23T11:53:44.731Z,57.86
2017-11-23T11:56:10.893Z,57.77
2017-11-23T11:58:36.802Z,57.84
2017-11-23T12:01:03.629Z,57.86
2017-11-23T12:03:30.212Z,58.88
2017-11-23T12:05:56.073Z,58.71
2017-11-23T12:08:23.013Z,59.14
2017-11-23T12:10:49.570Z,59.10
2017-11-23T12:13:15.714Z,58.95
2017-11-23T12:18:56.912Z,59.57
2017-11-23T12:21:25.797Z,60.26
2017-11-23T12:23:58.311Z,60.48
2017-11-23T12:26:24.526Z,61.09
2017-11-23T12:29:03.973Z,62.13
2017-11-23T12:31:30.303Z,62.29
2017-11-23T12:33:56.170Z,62.77
2017-11-23T12:36:23.176Z,63.74
2017-11-23T12:38:49.662Z,63.89
2017-11-23T12:41:18.115Z,64.09
2017-11-23T12:43:43.999Z,63.89
2017-11-23T12:46:10.568Z,65.65
2017-11-23T12:48:36.548Z,67.24
2017-11-23T12:51:03.247Z,67.29
2017-11-23T12:53:29.271Z,68.43
2017-11-23T12:55:56.461Z,68.69
2017-11-23T12:58:23.008Z,69.29
2017-11-23T13:00:49.115Z,70.24
2017-11-23T13:03:15.863Z,70.77
2017-11-23T13:05:42.489Z,71.38
2017-11-23T13:08:08.621Z,71.34
2017-11-23T13:10:35.634Z,71.15
2017-11-23T13:13:02.319Z,70.66
2017-11-23T13:15:28.329Z,71.03
2017-11-23T13:17:55.631Z,70.34
2017-11-23T13:20:21.449Z,69.20
2017-11-23T13:22:47.290Z,68.39
2017-11-23T13:25:13.728Z,68.60
2017-11-23T13:27:40.441Z,68.67
2017-11-23T13:30:07.384Z,68.16
2017-11-23T13:32:33.259Z,68.29
2017-11-23T13:35:00.033Z,68.16
2017-11-23T13:37:27.051Z,68.36
2017-11-23T13:39:53.079Z,68.54
2017-11-23T13:42:18.910Z,68.38
2017-11-23T13:44:45.239Z,68.91
2017-11-23T13:47:11.679Z,68.95
2017-11-23T13:49:38.643Z,68.95
2017-11-23T13:52:04.564Z,69.30
2017-11-23T13:54:30.793Z,69.38
2017-11-23T13:56:56.681Z,69.20
2017-11-23T13:59:23.146Z,69.44
2017-11-23T14:01:49.422Z,69.53
2017-11-23T14:04:15.241Z,69.57
2017-11-23T14:06:41.165Z,69.95
2017-11-23T14:09:07.390Z,70.35
2017-11-23T14:11:33.241Z,70.90
2017-11-23T14:13:59.067Z,71.07
2017-11-23T14:16:25.600Z,71.47
2017-11-23T14:18:58.974Z,71.82
2017-11-23T14:21:26.084Z,72.07
2017-11-23T14:23:52.148Z,72.51
2017-11-23T14:26:18.579Z,72.25
2017-11-23T14:28:45.202Z,72.61
2017-11-23T14:31:12.251Z,72.76
2017-11-23T14:33:39.325Z,73.14
2017-11-23T14:36:05.817Z,72.99
2017-11-23T14:38:32.541Z,73.71
2017-11-23T14:41:00.017Z,73.86
2017-11-23T14:43:25.945Z,74.09
2017-11-23T14:45:52.652Z,74.36
2017-11-23T14:48:18.838Z,74.97
2017-11-23T14:50:45.246Z,75.45
2017-11-23T14:53:11.385Z,75.50
2017-11-23T14:55:37.209Z,76.16
2017-11-23T14:58:03.034Z,76.34
2017-11-23T15:00:28.873Z,76.71
2017-11-23T15:02:54.696Z,77.17
2017-11-23T15:05:22.194Z,77.65
2017-11-23T15:07:48.666Z,77.57
2017-11-23T15:10:15.389Z,77.79
2017-11-23T15:12:41.268Z,78.07
2017-11-23T15:15:08.149Z,78.59
2017-11-23T15:17:33.990Z,78.97
2017-11-23T15:19:59.790Z,79.52
2017-11-23T15:22:25.648Z,79.18
2017-11-23T15:24:52.653Z,79.29
2017-11-23T15:27:18.588Z,79.45
2017-11-23T15:29:45.252Z,79.08
2017-11-23T15:32:11.134Z,79.01
2017-11-23T15:34:39.500Z,78.65
2017-11-23T15:37:05.319Z,78.66
2017-11-23T15:39:31.262Z,78.47
2017-11-23T15:41:58.296Z,78.48
2017-11-23T15:44:24.165Z,78.45
2017-11-23T15:46:49.967Z,78.35
2017-11-23T15:49:15.813Z,78.25
2017-11-23T15:51:41.634Z,78.55
2017-11-23T15:54:07.593Z,78.04
2017-11-23T15:56:34.194Z,78.42
2017-11-23T15:59:00.015Z,78.35
2017-11-23T16:01:25.832Z,78.85
2017-11-23T16:03:51.661Z,78.71
2017-11-23T16:06:17.476Z,78.75
2017-11-23T16:08:44.622Z,79.00
2017-11-23T16:11:10.538Z,79.20
2017-11-23T16:13:36.696Z,78.66
2017-11-23T16:16:03.438Z,78.58
2017-11-23T16:18:29.265Z,78.75
2017-11-23T16:20:55.152Z,78.88
2017-11-23T16:23:21.410Z,78.42
2017-11-23T16:25:47.715Z,78.68
2017-11-23T16:28:13.801Z,79.39
2017-11-23T16:30:39.847Z,80.43
2017-11-23T16:33:05.670Z,81.25
2017-11-23T16:35:32.185Z,82.59
2017-11-23T16:37:58.081Z,83.67
2017-11-23T16:40:39.299Z,84.92
2017-11-23T16:43:23.266Z,86.14
2017-11-23T16:45:55.488Z,86.48
2017-11-23T16:48:27.812Z,88.19
2017-11-23T16:53:59.072Z,88.03
2017-11-23T16:56:31.590Z,87.88
2017-11-23T17:02:06.651Z,88.07
2017-11-23T17:04:37.376Z,88.42
2017-11-23T17:07:12.238Z,88.74
2017-11-23T17:09:39.085Z,87.58
2017-11-23T17:15:13.529Z,87.49
2017-11-23T17:20:40.448Z,86.84
2017-11-23T17:23:06.549Z,85.69
2017-11-23T17:25:32.639Z,84.30
2017-11-23T17:27:58.493Z,83.10
2017-11-23T17:30:25.521Z,81.47
2017-11-23T17:32:52.066Z,79.22
2017-11-23T17:35:19.015Z,77.65
2017-11-23T17:37:45.867Z,77.02
2017-11-23T17:40:12.520Z,74.50
2017-11-23T17:42:38.590Z,74.81
2017-11-23T17:45:05.511Z,75.07
2017-11-23T17:47:31.963Z,74.35
2017-11-23T17:49:58.889Z,75.97
2017-11-23T17:52:24.972Z,75.17
2017-11-23T17:54:51.406Z,75.72
2017-11-23T17:57:17.283Z,76.15
2017-11-23T17:59:43.741Z,75.25
2017-11-23T18:02:09.554Z,75.36
2017-11-23T18:04:36.010Z,76.05
2017-11-23T18:07:02.255Z,76.26
2017-11-23T18:09:28.726Z,75.64
2017-11-23T18:11:55.335Z,75.48
2017-11-23T18:14:21.510Z,75.42
2017-11-23T18:16:47.666Z,75.90
2017-11-23T18:19:14.483Z,76.33
2017-11-23T18:21:40.366Z,76.72
2017-11-23T18:24:06.915Z,76.41
2017-11-23T18:26:33.236Z,77.30
2017-11-23T18:28:59.444Z,77.89
2017-11-23T18:31:25.297Z,78.46
2017-11-23T18:33:51.150Z,78.78
2017-11-23T18:36:17.662Z,79.04
2017-11-23T18:38:43.990Z,79.51
2017-11-23T18:41:10.085Z,80.16
2017-11-23T18:43:35.885Z,80.28
2017-11-23T18:46:02.240Z,80.58
2017-11-23T18:48:28.265Z,80.32
2017-11-23T18:50:54.132Z,80.89
2017-11-23T18:53:20.195Z,80.77
2017-11-23T18:55:46.696Z,80.97
2017-11-23T18:58:12.721Z,80.83
2017-11-23T19:00:38.642Z,80.79
2017-11-23T19:03:05.366Z,80.51
2017-11-23T19:05:31.268Z,80.68
2017-11-23T19:07:57.771Z,80.68
2017-11-23T19:10:23.616Z,80.85
2017-11-23T19:12:49.449Z,81.67
2017-11-23T19:15:15.419Z,81.06
2017-11-23T19:17:42.104Z,80.98
2017-11-23T19:20:08.946Z,81.33
2017-11-23T19:22:35.686Z,81.59
2017-11-23T19:25:02.121Z,81.60
2017-11-23T19:27:28.024Z,82.06
2017-11-23T19:29:53.888Z,82.26
2017-11-23T19:32:20.223Z,82.29
2017-11-23T19:34:46.632Z,82.12
2017-11-23T19:37:13.268Z,82.39
2017-11-23T19:39:40.098Z,82.70
2017-11-23T19:42:05.979Z,82.50
2017-11-23T19:44:32.561Z,82.84
2017-11-23T19:46:59.169Z,82.39
2017-11-23T19:49:26.159Z,82.71
2017-11-23T19:51:52.469Z,82.62
2017-11-23T19:54:18.949Z,82.92
2017-11-23T19:56:45.643Z,82.86
2017-11-23T19:59:12.845Z,82.61
2017-11-23T20:01:39.445Z,82.86
2017-11-23T20:04:05.293Z,82.31
2017-11-23T20:06:31.094Z,82.23
2017-11-23T20:08:57.110Z,82.32
2017-11-23T20:11:23.709Z,81.96
2017-11-23T20:13:50.033Z,82.16
2017-11-23T20:16:16.181Z,82.08
2017-11-23T20:18:42.151Z,81.98
2017-11-23T20:21:07.966Z,81.80
2017-11-23T20:23:34.844Z,82.01
2017-11-23T20:26:01.880Z,81.88
2017-11-23T20:28:28.529Z,81.93
2017-11-23T20:30:55.394Z,81.72
2017-11-23T20:33:22.093Z,82.11
2017-11-23T20:35:49.174Z,81.81
2017-11-23T20:38:16.225Z,81.87
2017-11-23T20:40:42.103Z,82.06
2017-11-23T20:43:08.273Z,81.73
2017-11-23T20:45:34.803Z,81.87
2017-11-23T20:48:01.748Z,81.88
2017-11-23T20:50:29.410Z,81.66
2017-11-23T20:52:56.230Z,81.63
2017-11-23T20:55:22.049Z,81.42
2017-11-23T20:57:50.252Z,81.03
2017-11-23T21:00:16.368Z,81.58
2017-11-23T21:02:43.675Z,82.05
2017-11-23T21:05:10.361Z,82.43
2017-11-23T21:07:37.342Z,82.36
2017-11-23T21:10:04.888Z,82.39
2017-11-23T21:12:30.770Z,82.68
2017-11-23T21:14:56.618Z,82.61
2017-11-23T21:17:23.652Z,82.40
2017-11-23T21:19:51.500Z,82.37
2017-11-23T21:22:18.323Z,82.45
2017-11-23T21:24:45.753Z,82.39
2017-11-23T21:27:12.343Z,82.33
2017-11-23T21:29:39.658Z,82.36
2017-11-23T21:32:06.556Z,82.60
2017-11-23T21:34:34.305Z,82.57
2017-11-23T21:37:00.096Z,82.69
2017-11-23T21:39:26.563Z,82.92
2017-11-23T21:41:52.434Z,82.84
2017-11-23T21:44:18.793Z,82.93
2017-11-23T21:46:45.694Z,82.92
2017-11-23T21:49:13.111Z,82.76
2017-11-23T21:51:40.368Z,83.09
2017-11-23T21:54:07.377Z,82.66
2017-11-23T21:56:34.551Z,82.65
2017-11-23T21:59:01.508Z,82.53
2017-11-23T22:01:28.426Z,82.84
2017-11-23T22:03:55.601Z,82.67
2017-11-23T22:06:22.440Z,82.61
2017-11-23T22:08:48.623Z,82.52
2017-11-23T22:11:14.669Z,82.94
2017-11-23T22:13:40.670Z,82.62
2017-11-23T22:16:07.276Z,82.80
2017-11-23T22:18:34.696Z,82.55
2017-11-23T22:21:01.217Z,82.97
2017-11-23T22:23:28.027Z,82.81
2017-11-23T22:25:54.348Z,82.45
2017-11-23T22:28:20.650Z,82.21
2017-11-23T22:30:46.480Z,81.88
2017-11-23T22:33:12.277Z,81.68
2017-11-23T22:35:38.120Z,81.53
2017-11-23T22:38:03.941Z,80.86
2017-11-23T22:40:29.770Z,80.83
2017-11-23T22:42:55.756Z,80.52
2017-11-23T22:45:21.574Z,80.12
2017-11-23T22:47:47.372Z,80.24
2017-11-23T22:50:13.488Z,79.95
2017-11-23T22:52:39.259Z,79.96
2017-11-23T22:55:05.472Z,79.47
2017-11-23T22:57:31.292Z,79.19
2017-11-23T22:59:57.428Z,79.25
2017-11-23T23:02:23.531Z,79.75
2017-11-23T23:04:49.334Z,79.54
2017-11-23T23:07:15.153Z,79.40
2017-11-23T23:09:41.115Z,79.24
2017-11-23T23:12:06.941Z,79.56
2017-11-23T23:14:32.750Z,79.39
2017-11-23T23:16:58.704Z,79.22
2017-11-23T23:19:24.569Z,79.47
2017-11-23T23:21:50.599Z,79.57
2017-11-23T23:24:16.437Z,79.42
2017-11-23T23:26:42.444Z,79.59
2017-11-23T23:29:08.366Z,79.66
2017-11-23T23:31:34.205Z,79.34
2017-11-23T23:34:00.013Z,79.18
2017-11-23T23:36:26.122Z,79.35
2017-11-23T23:38:52.873Z,79.16
2017-11-23T23:41:18.701Z,78.93
2017-11-23T23:43:44.527Z,78.88
2017-11-23T23:46:10.386Z,78.97
2017-11-23T23:48:36.484Z,79.12
2017-11-23T23:51:02.339Z,79.01
2017-11-23T23:53:28.286Z,78.96
2017-11-23T23:55:54.097Z,78.90
2017-11-23T23:58:19.902Z,78.83
